Nearby METAR Reports

Sorted by Distance from Carson Valley Weather Station - Minden, Nevada

 

KMEV - Minden, Nevada, USA
Distance from station: SSW 3mi, 5km
Updated: Sun, 26-Jun-2022 6:55am PDT
Clear
Clear
 Wind from calm
Wind: Calm
Temperature: 54°F , 12°C
Dew Point: 41°F , 5°C
Humidity: 63%
Barometer: 30.24 inHg , 1024 hPa
Clouds: Clear
Visibility: 10 miles , 16 km
2022/06/26 13:55 KMEV 261355Z AUTO 00000KT 10SM CLR 12/05 A3024 RMK AO2
KCXP - Carson City, Nevada, USA
Distance from station: N 10mi, 16km
Updated: Sat, 25-Jun-2022 9:15am PDT
NOT Current
Clear
Clear
 Wind from calm
Wind: Calm
Temperature: 75°F , 24°C
Dew Point: 36°F , 2°C
Humidity: 24%
Barometer: 30.21 inHg , 1023 hPa
Clouds: Clear
Visibility: 10 miles , 16 km
2022/06/25 16:15 KCXP 251615Z AUTO 00000KT 10SM CLR 24/02 A3021 RMK AO2
 
KTVL - South Lake Tahoe, California, USA
Distance from station: WSW 18mi, 29km
Updated: Sun, 26-Jun-2022 6:53am PDT
Clear
Clear
 Wind from SSE
Wind: SSE 3 mph , 6 km/h
Temperature: 45°F , 7°C
Dew Point: 39°F , 4°C
Humidity: 81%
Barometer: 30.34 inHg , 1027.4 hPa
Clouds: Clear
Visibility: 10 miles , 16 km
2022/06/26 13:53 KTVL 261353Z AUTO 15003KT 10SM CLR 07/04 A3034 RMK AO2 SLP229 T00670039
KTRK - Truckee Tahoe, California, USA
Distance from station: NW 29mi, 46km
Updated: Sun, 26-Jun-2022 6:45am PDT
Clear
Clear
 Wind from calm
Wind: Calm
Temperature: 45°F , 7°C
Dew Point: 41°F , 5°C
Humidity: 87%
Barometer: 30.34 inHg , 1027.4 hPa
Clouds: Clear
Visibility: 10 miles , 16 km
2022/06/26 13:45 KTRK 261345Z 00000KT 10SM CLR 07/05 A3034
 
KRNO - Reno, Nevada, USA
Distance from station: N 32mi, 51km
Updated: Sun, 26-Jun-2022 6:55am PDT
Few Clouds
Few Clouds
 Wind from SSW
Wind: SSW 3 mph , 6 km/h
Temperature: 66°F , 19°C
Dew Point: 43°F , 6°C
Humidity: 43%
Barometer: 30.22 inHg , 1023.4 hPa
Clouds: Few Clouds
Visibility: 10 miles , 16 km
Cloud details: Few Clouds 10000 ft
2022/06/26 13:55 KRNO 261355Z 20003KT 10SM FEW100 19/06 A3022 RMK AO2 SLP176 T01890056
KRTS - Reno/Stead, Nevada, USA
Distance from station: NNW 44mi, 71km
Updated: Sun, 26-Jun-2022 6:55am PDT
Clear
Clear
 Wind from calm
Wind: Calm
Temperature: 59°F , 15°C
Dew Point: 37°F , 3°C
Humidity: 45%
Barometer: 30.26 inHg , 1024.7 hPa
Clouds: Clear
Visibility: 10 miles , 16 km
2022/06/26 13:55 KRTS 261355Z AUTO 00000KT 10SM CLR 15/03 A3026 RMK AO2
 
KBAN - Bridgeport(Mcmwt, California, USA
Distance from station: SSE 49mi, 79km
Updated: Sun, 26-Jun-2022 6:52am PDT
Clear
Clear
 Wind from calm
Wind: Calm
Temperature: 45°F , 7°C
Dew Point: 36°F , 2°C
Humidity: 71%
Barometer: 30.37 inHg , 1028.4 hPa
Clouds: Clear
Visibility: 10 miles , 16 km
2022/06/26 13:52 KBAN 261352Z AUTO 00000KT 10SM CLR 07/02 A3037 RMK AO2 SLP200 T00720022 $
KBLU - Emigrant Gap, California, USA
Distance from station: WNW 55mi, 89km
Updated: Sun, 26-Jun-2022 6:52am PDT
Clear
Clear
 Wind from calm
Wind: Calm
Temperature: 72°F , 22°C
Dew Point: 39°F , 4°C
Humidity: 31%
Barometer: 30.26 inHg , 1024.7 hPa
Clouds: Clear
Visibility: 10 miles , 16 km
2022/06/26 13:52 KBLU 261352Z AUTO 00000KT 10SM CLR 22/04 A3026 RMK AO2 SLP133 T02170039 $
 
KPVF - Placerville, California, USA
Distance from station: WSW 60mi, 96km
Updated: Sun, 26-Jun-2022 7:15am PDT
Clear
Clear
 Wind from calm
Wind: Calm
Temperature: 75°F , 24°C
Dew Point: 43°F , 6°C
Humidity: 31%
Barometer: 30.08 inHg , 1018.6 hPa
Clouds: Clear
Visibility: 10 miles , 16 km
2022/06/26 14:15 KPVF 261415Z AUTO 00000KT 10SM CLR 24/06 A3008 RMK AO1
KNFL - Fallon Nas, Nevada, USA
Distance from station: ENE 61mi, 97km
Updated: Sun, 26-Jun-2022 6:56am PDT
Clear
Clear
 Wind from varies
Wind: varies 3 mph , 6 km/h
Temperature: 70°F , 21°C
Dew Point: 36°F , 2°C
Humidity: 29%
Barometer: 30.17 inHg , 1021.7 hPa
Clouds: Clear
Visibility: 10 miles , 16 km
2022/06/26 13:56 KNFL 261356Z AUTO VRB03KT 10SM CLR 21/02 A3017 RMK AO2 SLP180 T02060022
 
KHTH - Hawthorne, Nevada, USA
Distance from station: ESE 68mi, 109km
Updated: Sun, 26-Jun-2022 6:55am PDT
Clear
Clear
 Wind from calm
Wind: Calm
Temperature: 68°F , 20°C
Dew Point: 34°F , 1°C
Humidity: 28%
Barometer: 30.20 inHg , 1022.7 hPa
Clouds: Clear
Visibility: 10 miles , 16 km
2022/06/26 13:55 KHTH 261355Z AUTO 00000KT 10SM CLR 20/01 A3020 RMK A01
KGOO - Grass Valley, California, USA
Distance from station: W 70mi, 112km
Updated: Sun, 26-Jun-2022 6:55am PDT
Clear
Clear
 Wind from calm
Wind: Calm
Temperature: 73°F , 23°C
Dew Point: 45°F , 7°C
Humidity: 36%
Barometer: 30.09 inHg , 1019 hPa
Clouds: Clear
Visibility: 10 miles , 16 km
2022/06/26 13:55 KGOO 261355Z AUTO 00000KT 10SM CLR 23/07 A3009 RMK A01
 
KAUN - Auburn Muni, California, USA
Distance from station: W 73mi, 118km
Updated: Sun, 26-Jun-2022 6:55am PDT
Clear
Clear
 Wind from E
Wind: E 10 mph , 17 km/h
Temperature: 75°F , 24°C
Dew Point: 45°F , 7°C
Humidity: 34%
Barometer: 30.01 inHg , 1016.3 hPa
Clouds: Clear
Visibility: 10 miles , 16 km
2022/06/26 13:55 KAUN 261355Z AUTO 08009KT 10SM CLR 24/07 A3001 RMK A01
KO22 - Columbia, California, USA
Distance from station: SSW 79mi, 127km
Updated: Sun, 26-Jun-2022 7:15am PDT
Clear
Clear
 Wind from calm
Wind: Calm
Temperature: 70°F , 21°C
Dew Point: 48°F , 9°C
Humidity: 46%
Barometer: 30.03 inHg , 1016.9 hPa
Clouds: Clear
Visibility: 10 miles , 16 km
2022/06/26 14:15 KO22 261415Z AUTO 00000KT 10SM CLR 21/09 A3003 RMK A01
 
KLHM - Lincoln, California, USA
Distance from station: W 88mi, 141km
Updated: Sun, 26-Jun-2022 6:55am PDT
Clear
Clear
 Wind from SSE
Wind: SSE 8 mph , 13 km/h
Temperature: 70°F , 21°C
Dew Point: 45°F , 7°C
Humidity: 40%
Barometer: 29.94 inHg , 1013.9 hPa
Clouds: Clear
Visibility: 10 miles , 16 km
2022/06/26 13:55 KLHM 261355Z AUTO 15007KT 10SM CLR 21/07 A2994 RMK AO1
KBAB - Beale Afb/Marysv, California, USA
Distance from station: W 91mi, 147km
Updated: Sun, 26-Jun-2022 6:58am PDT
Clear
Clear
 Wind from calm
Wind: Calm
Temperature: 68°F , 20°C
Dew Point: 52°F , 11°C
Humidity: 56%
Barometer: 29.94 inHg , 1013.9 hPa
Clouds: Clear
Visibility: 10 miles , 16 km
2022/06/26 13:58 KBAB 261358Z AUTO 00000KT 10SM CLR 20/11 A2994 RMK AO2 SLP141 T02010110 $
 
KMHR - Mather Field, California, USA
Distance from station: WSW 91mi, 147km
Updated: Sun, 26-Jun-2022 6:50am PDT
Clear
Clear
 Wind from S
Wind: S 7 mph , 11 km/h
Temperature: 66°F , 19°C
Dew Point: 48°F , 9°C
Humidity: 52%
Barometer: 29.94 inHg , 1013.9 hPa
Clouds: Clear
Visibility: 10 miles , 16 km
2022/06/26 13:50 KMHR 261350Z AUTO 17006KT 10SM CLR 19/09 A2994 RMK A01
KLOL - Lovelock, Nevada, USA
Distance from station: NE 94mi, 151km
Updated: Sun, 26-Jun-2022 6:53am PDT
Clear
Clear
 Wind from NNE
Wind: NNE 6 mph , 9 km/h
Temperature: 70°F , 21°C
Dew Point: 28°F , -2°C
Humidity: 21%
Barometer: 30.16 inHg , 1021.3 hPa
Clouds: Clear
Visibility: 10 miles , 16 km
2022/06/26 13:53 KLOL 261353Z AUTO 02005KT 10SM CLR 21/M02 A3016 RMK AO2 SLP169 T02061022
 
KMCC - Mcclellan Afb, California, USA
Distance from station: WSW 94mi, 151km
Updated: Sun, 26-Jun-2022 6:55am PDT
Clear
Clear
 Wind from SE
Wind: SE 6 mph , 9 km/h
Temperature: 66°F , 19°C
Dew Point: 48°F , 9°C
Humidity: 52%
Barometer: 29.94 inHg , 1013.9 hPa
Clouds: Clear
Visibility: 10 miles , 16 km
2022/06/26 13:55 KMCC 261355Z AUTO 14005KT 10SM CLR 19/09 A2994 RMK AO2
KMYV - Marysville, California, USA
Distance from station: W 99mi, 159km
Updated: Sun, 26-Jun-2022 6:53am PDT
Clear
Clear
 Wind from calm
Wind: Calm
Temperature: 66°F , 19°C
Dew Point: 48°F , 9°C
Humidity: 52%
Barometer: 29.95 inHg , 1014.2 hPa
Clouds: Clear
Visibility: 10 miles , 16 km
2022/06/26 13:53 KMYV 261353Z AUTO 00000KT 10SM CLR 19/09 A2995 RMK AO2 SLP145 T01890089 $
 
KSVE - Susanville Muni, California, USA
Distance from station: NNW 102mi, 164km
Updated: Sun, 26-Jun-2022 7:15am PDT
Clear
Clear
 Wind from calm
Wind: Calm
Temperature: 59°F , 15°C
Dew Point: 41°F , 5°C
Humidity: 51%
Barometer: 30.20 inHg , 1022.7 hPa
Clouds: Clear
Visibility: 10 miles , 16 km
2022/06/26 14:15 KSVE 261415Z AUTO 00000KT 10SM CLR 15/05 A3020 RMK AO2
KSAC - Sacramento, California, USA
Distance from station: WSW 103mi, 165km
Updated: Sun, 26-Jun-2022 6:53am PDT
Clear
Clear
 Wind from varies
Wind: varies 3 mph , 6 km/h
Temperature: 63°F , 17°C
Dew Point: 52°F , 11°C
Humidity: 68%
Barometer: 29.94 inHg , 1013.9 hPa
Clouds: Clear
Visibility: 10 miles , 16 km
2022/06/26 13:53 KSAC 261353Z AUTO VRB03KT 10SM CLR 17/11 A2994 RMK AO2 SLP140 T01720111
 
KSMF - Sacramento/Metro, California, USA
Distance from station: WSW 104mi, 167km
Updated: Sun, 26-Jun-2022 6:53am PDT
Clear
Clear
 Wind from S
Wind: S 7 mph , 11 km/h
Temperature: 64°F , 18°C
Dew Point: 50°F , 10°C
Humidity: 60%
Barometer: 29.93 inHg , 1013.5 hPa
Clouds: Clear
Visibility: 10 miles , 16 km
2022/06/26 13:53 KSMF 261353Z 17006KT 10SM CLR 18/10 A2993 RMK AO2 SLP136 T01780100
KOVE - Oroville, California, USA
Distance from station: WNW 106mi, 171km
Updated: Sun, 26-Jun-2022 6:53am PDT
Clear
Clear
 Wind from calm
Wind: Calm
Temperature: 72°F , 22°C
Dew Point: 50°F , 10°C
Humidity: 47%
Barometer: 29.97 inHg , 1014.9 hPa
Clouds: Clear
Visibility: 10 miles , 16 km
2022/06/26 13:53 KOVE 261353Z AUTO 00000KT 10SM CLR 22/10 A2997 RMK AO2 SLP148 T02220100
 
KMMH - Mammoth/June Lak, California, USA
Distance from station: SSE 110mi, 177km
Updated: Sun, 26-Jun-2022 6:40am PDT
Clear
Clear
 Wind from WNW
Wind: WNW 3 mph , 6 km/h
Temperature: 50°F , 10°C
Dew Point: 36°F , 2°C
Humidity: 58%
Barometer: 30.41 inHg , 1029.8 hPa
Clouds: Clear
Visibility: 10 miles , 16 km
2022/06/26 13:40 KMMH 261340Z AUTO 30003KT 10SM CLR 10/02 A3041 RMK AO2
KSCK - Stockton, California, USA
Distance from station: SW 114mi, 183km
Updated: Sun, 26-Jun-2022 6:55am PDT
Clear
Clear
 Wind from N
Wind: N 3 mph , 6 km/h
Temperature: 66°F , 19°C
Dew Point: 54°F , 12°C
Humidity: 64%
Barometer: 29.95 inHg , 1014.2 hPa
Clouds: Clear
Visibility: 10 miles , 16 km
2022/06/26 13:55 KSCK 261355Z 35003KT 10SM CLR 19/12 A2995 RMK AO2 SLP141 T01890117 $
 
KEDU - Davis, California, USA
Distance from station: WSW 116mi, 187km
Updated: Sun, 26-Jun-2022 6:55am PDT
Clear
Clear
 
Temperature: 57°F , 14°C
Dew Point: 52°F , 11°C
Humidity: 82%
Barometer: 29.95 inHg , 1014.2 hPa
Clouds: Clear
Visibility: 10 miles , 16 km
2022/06/26 13:55 KEDU 261355Z AUTO 10SM CLR 14/11 A2995 RMK AO1
KMOD - Modesto, California, USA
Distance from station: SW 119mi, 191km
Updated: Sun, 26-Jun-2022 6:53am PDT
Clear
Clear
 Wind from NW
Wind: NW 7 mph , 11 km/h
Temperature: 66°F , 19°C
Dew Point: 48°F , 9°C
Humidity: 52%
Barometer: 29.93 inHg , 1013.5 hPa
Clouds: Clear
Visibility: 10 miles , 16 km
2022/06/26 13:53 KMOD 261353Z 31006KT 10SM CLR 19/09 A2993 RMK AO2 SLP135 T01890094 $
 
KMER - Merced/Castle Af, California, USA
Distance from station: SSW 123mi, 198km
Updated: Sun, 26-Jun-2022 6:45am PDT
Clear
Clear
 Wind from NW
Wind: NW 5 mph , 7 km/h
Temperature: 66°F , 19°C
Dew Point: 48°F , 9°C
Humidity: 52%
Barometer: 29.94 inHg , 1013.9 hPa
Clouds: Clear
Visibility: 10 miles , 16 km
2022/06/26 13:45 KMER 261345Z 31004KT 10SM CLR 19/09 A2994
KCIC - Chico Municipal, California, USA
Distance from station: WNW 124mi, 199km
Updated: Sun, 26-Jun-2022 6:55am PDT
Clear
Clear
 Wind from ENE
Wind: ENE 5 mph , 7 km/h
Temperature: 73°F , 23°C
Dew Point: 41°F , 5°C
Humidity: 31%
Barometer: 29.97 inHg , 1014.9 hPa
Clouds: Clear
Visibility: 10 miles , 16 km
2022/06/26 13:55 KCIC 261355Z AUTO 07004KT 10SM CLR 23/05 A2997 RMK AO1
 
KMCE - Merced, California, USA
Distance from station: SSW 128mi, 207km
Updated: Sun, 26-Jun-2022 6:53am PDT
Clear
Clear
 Wind from NW
Wind: NW 6 mph , 9 km/h
Temperature: 70°F , 21°C
Dew Point: 48°F , 9°C
Humidity: 46%
Barometer: 29.93 inHg , 1013.5 hPa
Clouds: Clear
Visibility: 10 miles , 16 km
2022/06/26 13:53 KMCE 261353Z AUTO 32005KT 10SM CLR 21/09 A2993 RMK AO2 SLP134 T02060094
KVCB - Vacaville, California, USA
Distance from station: WSW 128mi, 207km
Updated: Sun, 26-Jun-2022 6:53am PDT
Clear
Clear
 Wind from varies
Wind: varies 3 mph , 6 km/h
Temperature: 64°F , 18°C
Dew Point: 46°F , 8°C
Humidity: 52%
Barometer: 29.95 inHg , 1014.2 hPa
Clouds: Clear
Visibility: 10 miles , 16 km
2022/06/26 13:53 KVCB 261353Z AUTO VRB03KT 10SM CLR 18/08 A2995 RMK AO2 SLP140 T01780083 $
 
KSUU - Travis Afb/Fairf, California, USA
Distance from station: WSW 130mi, 209km
Updated: Sun, 26-Jun-2022 6:58am PDT
Clear
Clear
 Wind from WSW
Wind: WSW 16 mph , 26 km/h
Temperature: 59°F , 15°C
Dew Point: 52°F , 11°C
Humidity: 77%
Barometer: 29.94 inHg , 1013.9 hPa
Clouds: Clear
Visibility: 10 miles , 16 km
2022/06/26 13:58 KSUU 261358Z AUTO 24014KT 10SM CLR 15/11 A2994 RMK AO2 SLP145 T01450105 $
KBIH - Bishop, California, USA
Distance from station: SE 137mi, 221km
Updated: Sun, 26-Jun-2022 6:56am PDT
Clear
Clear
 Wind from WNW
Wind: WNW 6 mph , 9 km/h
Temperature: 66°F , 19°C
Dew Point: 39°F , 4°C
Humidity: 37%
Barometer: 30.18 inHg , 1022 hPa
Clouds: Clear
Visibility: 10 miles , 16 km
2022/06/26 13:56 KBIH 261356Z AUTO 29005KT 10SM CLR 19/04 A3018 RMK AO2 SLP170 T01890039
 
KMAE - Madera, California, USA
Distance from station: S 144mi, 231km
Updated: Sun, 26-Jun-2022 6:53am PDT
Clear
Clear
 Wind from NW
Wind: NW 5 mph , 7 km/h
Temperature: 70°F , 21°C
Dew Point: 48°F , 9°C
Humidity: 46%
Barometer: 29.95 inHg , 1014.2 hPa
Clouds: Clear
Visibility: 10 miles , 16 km
2022/06/26 13:53 KMAE 261353Z AUTO 32004KT 10SM CLR 21/09 A2995 RMK AO2 SLP137 T02060089
KCCR - Concord, California, USA
Distance from station: WSW 145mi, 233km
Updated: Sun, 26-Jun-2022 6:53am PDT
Clear
Clear
 Wind from WNW
Wind: WNW 6 mph , 9 km/h
Temperature: 57°F , 14°C
Dew Point: 52°F , 11°C
Humidity: 82%
Barometer: 29.99 inHg , 1015.6 hPa
Clouds: Clear
Visibility: 10 miles , 16 km
2022/06/26 13:53 KCCR 261353Z AUTO 29005KT 10SM CLR 14/11 A2999 RMK AO2 SLP140 T01440111
 
KLVK - Livermore, California, USA
Distance from station: SW 146mi, 236km
Updated: Sun, 26-Jun-2022 6:53am PDT
Clear
Clear
 Wind from calm
Wind: Calm
Temperature: 61°F , 16°C
Dew Point: 52°F , 11°C
Humidity: 72%
Barometer: 29.99 inHg , 1015.6 hPa
Clouds: Clear
Visibility: 10 miles , 16 km
2022/06/26 13:53 KLVK 261353Z 00000KT 10SM CLR 16/11 A2999 RMK AO2 SLP151 T01560111
KAPC - Napa, California, USA
Distance from station: WSW 150mi, 241km
Updated: Sun, 26-Jun-2022 6:54am PDT
Overcast
Overcast
 Wind from WNW
Wind: WNW 5 mph , 7 km/h
Temperature: 54°F , 12°C
Dew Point: 52°F , 11°C
Humidity: 94%
Barometer: 30.01 inHg , 1016.3 hPa
Clouds: Overcast
Visibility: 9 miles , 14 km
Cloud details: Overcast 300 ft
2022/06/26 13:54 KAPC 261354Z AUTO 29004KT 9SM OVC003 12/11 A3001 RMK AO2 SLP153 T01170111
 
KRBL - Red Bluff, California, USA
Distance from station: WNW 155mi, 249km
Updated: Sun, 26-Jun-2022 6:54am PDT
Clear
Clear
 Wind from NW
Wind: NW 3 mph , 6 km/h
Temperature: 70°F , 21°C
Dew Point: 46°F , 8°C
Humidity: 43%
Barometer: 29.96 inHg , 1014.6 hPa
Clouds: Clear
Visibility: 10 miles , 16 km
2022/06/26 13:54 KRBL 261354Z AUTO 31003KT 10SM CLR 21/08 A2996 RMK AO2 SLP141 T02110078
KFAT - Fresno, California, USA
Distance from station: S 156mi, 251km
Updated: Sun, 26-Jun-2022 6:53am PDT
Clear
Clear
 Wind from calm
Wind: Calm
Temperature: 73°F , 23°C
Dew Point: 45°F , 7°C
Humidity: 36%
Barometer: 29.96 inHg , 1014.6 hPa
Clouds: Clear
Visibility: 10 miles , 16 km
2022/06/26 13:53 KFAT 261353Z 00000KT 10SM CLR 23/07 A2996 RMK AO2 SLP139 T02330072 $
 
KTPH - Tonopah, Nevada, USA
Distance from station: ESE 158mi, 254km
Updated: Thu, 23-Jun-2022 1:56pm PDT
NOT Current
Clear
Clear
 Wind from S
Wind: S 18 mph , 30 km/h, Gust: 24 mph , 39 km/h
Temperature: 82°F , 28°C
Dew Point: 34°F , 1°C
Humidity: 17%
Barometer: 30.08 inHg , 1018.6 hPa
Clouds: Clear
Visibility: 10 miles , 16 km
2022/06/23 20:56 KTPH 232056Z AUTO 18016G21KT 10SM CLR 28/01 A3008 RMK AO2 SLP121 T02780006 58019
KFCH - Fresno Chandler, California, USA
Distance from station: S 161mi, 258km
Updated: Sun, 06-Mar-2022 2:40pm PST
NOT Current
Partly cloudy
Partly cloudy
 Wind from calm
Wind: Calm
Temperature: 57°F , 14°C
Dew Point: 36°F , 2°C
Humidity: 44%
Barometer: 30.26 inHg , 1024.7 hPa
Clouds: Partly cloudy
Visibility: 10 miles , 16 km
Cloud details: Partly cloudy 5000 ft
2022/03/06 22:40 KFCH 062240Z AUTO 00000KT 10SM SCT050 14/02 A3026 RMK A01
 
KHWD - Hayward, California, USA
Distance from station: SW 161mi, 259km
Updated: Sun, 26-Jun-2022 6:54am PDT
Mist, Overcast
Mist, Overcast
 Wind from NE
Wind: NE 5 mph , 7 km/h
Temperature: 57°F , 14°C
Dew Point: 54°F , 12°C
Humidity: 88%
Barometer: 30.01 inHg , 1016.3 hPa
Summary: Mist
Clouds: Overcast
Visibility: 2 miles , 3 km
Cloud details: Overcast 600 ft
2022/06/26 13:54 KHWD 261354Z 04004KT 2SM BR OVC006 14/12 A3001 RMK AO2 SLP169 T01390122
KOAK - Oakland, California, USA
Distance from station: SW 164mi, 264km
Updated: Sun, 26-Jun-2022 6:53am PDT
Overcast
Overcast
 Wind from NW
Wind: NW 3 mph , 6 km/h
Temperature: 55°F , 13°C
Dew Point: 54°F , 12°C
Humidity: 94%
Barometer: 30.02 inHg , 1016.6 hPa
Clouds: Overcast
Visibility: 9 miles , 14 km
Cloud details: Overcast 600 ft
2022/06/26 13:53 KOAK 261353Z 31003KT 9SM OVC006 13/12 A3002 RMK AO2 SLP164 T01330117
 
KWMC - Winnemucca, Nevada, USA
Distance from station: NE 164mi, 264km
Updated: Sun, 26-Jun-2022 6:56am PDT
Clear
Clear
 Wind from SSE
Wind: SSE 5 mph , 7 km/h
Temperature: 63°F , 17°C
Dew Point: 30°F , -1°C
Humidity: 30%
Barometer: 30.22 inHg , 1023.4 hPa
Clouds: Clear
Visibility: 10 miles , 16 km
2022/06/26 13:56 KWMC 261356Z AUTO 15004KT 10SM CLR 17/M01 A3022 RMK AO2 SLP182 T01721006
KDVO - Novato/Gnoss Fld, California, USA
Distance from station: WSW 165mi, 265km
Updated: Sun, 26-Jun-2022 6:55am PDT
Overcast
Overcast
 Wind from calm
Wind: Calm
Temperature: 55°F , 13°C
Dew Point: 54°F , 12°C
Humidity: 94%
Barometer: 30.02 inHg , 1016.6 hPa
Clouds: Overcast
Visibility: 10 miles , 16 km
Cloud details: Overcast 500 ft
2022/06/26 13:55 KDVO 261355Z AUTO 00000KT 10SM OVC005 13/12 A3002 RMK AO2
 
KO69 - Petaluma, California, USA
Distance from station: WSW 165mi, 265km
Updated: Sun, 26-Jun-2022 6:55am PDT
Mist, Overcast
Mist, Overcast
 Wind from W
Wind: W 9 mph , 15 km/h
Temperature: 52°F , 11°C
Dew Point: 52°F , 11°C
Humidity: 100%
Barometer: 30.03 inHg , 1016.9 hPa
Summary: Mist
Clouds: Overcast
Visibility: 5 miles , 8 km
Cloud details: Overcast 300 ft
2022/06/26 13:55 KO69 261355Z AUTO 28008KT 5SM BR OVC003 11/11 A3003 RMK A01
KRHV - San Jose/Reid, California, USA
Distance from station: SW 165mi, 265km
Updated: Sun, 26-Jun-2022 6:55am PDT
Clear
Clear
 Wind from calm
Wind: Calm
Temperature: 61°F , 16°C
Dew Point: 54°F , 12°C
Humidity: 77%
Barometer: 30.02 inHg , 1016.6 hPa
Clouds: Clear
Visibility: 10 miles , 16 km
2022/06/26 13:55 KRHV 261355Z 00000KT 10SM SKC 16/12 A3002
 
KSJC - San Jose, California, USA
Distance from station: SW 166mi, 267km
Updated: Sun, 26-Jun-2022 6:53am PDT
Overcast
Overcast
 Wind from NW
Wind: NW 3 mph , 6 km/h
Temperature: 61°F , 16°C
Dew Point: 57°F , 14°C
Humidity: 88%
Barometer: 30.00 inHg , 1015.9 hPa
Clouds: Overcast
Visibility: 9 miles , 14 km
Cloud details: Few Clouds 300 ft
Mostly cloudy 1000 ft
Overcast 1400 ft
2022/06/26 13:53 KSJC 261353Z 32003KT 9SM FEW003 BKN010 OVC014 16/14 A3000 RMK AO2 SLP159 T01610139 $
KE16 - San Martin, California, USA
Distance from station: SW 169mi, 273km
Updated: Sun, 26-Jun-2022 6:55am PDT
Clear
Clear
 Wind from SE
Wind: SE 3 mph , 6 km/h
Temperature: 54°F , 12°C
Dew Point: 48°F , 9°C
Humidity: 82%
Barometer: 30.03 inHg , 1016.9 hPa
Clouds: Clear
Visibility: 10 miles , 16 km
2022/06/26 13:55 KE16 261355Z AUTO 14003KT 10SM CLR 12/09 A3003 RMK AO2
 
KPAO - Palo Alto, California, USA
Distance from station: SW 169mi, 273km
Updated: Sun, 26-Jun-2022 6:47am PDT
Mist, Overcast
Mist, Overcast
 Wind from NW
Wind: NW 17 mph , 28 km/h
Temperature: 59°F , 15°C
Dew Point: 55°F , 13°C
Humidity: 88%
Barometer: 30.02 inHg , 1016.6 hPa
Summary: Mist
Clouds: Overcast
Visibility: 8 miles , 13 km
Cloud details: Overcast 600 ft
2022/06/26 13:47 KPAO 261347Z 32015KT 8SM BR OVC006 15/13 A3002
KNUQ - Moffett Nas/Mtn, California, USA
Distance from station: SW 170mi, 273km
Updated: Sun, 26-Jun-2022 6:50am PDT
Overcast
Overcast
 Wind from calm
Wind: Calm
Temperature: 61°F , 16°C
Dew Point: 55°F , 13°C
Humidity: 83%
Barometer: 30.01 inHg , 1016.3 hPa
Clouds: Overcast
Visibility: 7 miles , 11 km
Cloud details: Overcast 900 ft
2022/06/26 13:50 KNUQ 261350Z AUTO 00000KT 7SM OVC009 16/13 A3001 RMK AO2
 
KRDD - Redding, California, USA
Distance from station: NW 171mi, 275km
Updated: Sun, 26-Jun-2022 6:53am PDT
Clear
Clear
 Wind from calm
Wind: Calm
Temperature: 70°F , 21°C
Dew Point: 48°F , 9°C
Humidity: 46%
Barometer: 29.96 inHg , 1014.6 hPa
Clouds: Clear
Visibility: 10 miles , 16 km
2022/06/26 13:53 KRDD 261353Z 00000KT 10SM CLR 21/09 A2996 RMK AO2 SLP138 T02110089
KSTS - Santa Rosa, California, USA
Distance from station: WSW 171mi, 275km
Updated: Sun, 26-Jun-2022 6:53am PDT
Mist, Overcast
Mist, Overcast
 Wind from SSW
Wind: SSW 3 mph , 6 km/h
Temperature: 52°F , 11°C
Dew Point: 52°F , 11°C
Humidity: 100%
Barometer: 30.01 inHg , 1016.3 hPa
Summary: Mist
Clouds: Overcast
Visibility: 4 miles , 6 km
Cloud details: Overcast 200 ft
2022/06/26 13:53 KSTS 261353Z 20003KT 4SM BR OVC002 11/11 A3001 RMK AO2 SLP157 T01110106
 
KSQL - San Carlos Airpo, California, USA
Distance from station: SW 173mi, 278km
Updated: Sun, 26-Jun-2022 6:55am PDT
Overcast
Overcast
 Wind from calm
Wind: Calm
Temperature: 57°F , 14°C
Dew Point: 57°F , 14°C
Humidity: 100%
Barometer: 30.02 inHg , 1016.6 hPa
Clouds: Overcast
Visibility: 8 miles , 13 km
Cloud details: Overcast 600 ft
2022/06/26 13:55 KSQL 261355Z AUTO 00000KT 8SM OVC006 14/14 A3002 RMK AO2
KCVH - Hollister Muni, California, USA
Distance from station: SSW 174mi, 280km
Updated: Sun, 26-Jun-2022 7:15am PDT
Few Clouds
Few Clouds
 Wind from calm
Wind: Calm
Temperature: 52°F , 11°C
Dew Point: 52°F , 11°C
Humidity: 100%
Barometer: 30.03 inHg , 1016.9 hPa
Clouds: Few Clouds
Visibility: 10 miles , 16 km
Cloud details: Few Clouds 100 ft
2022/06/26 14:15 KCVH 261415Z AUTO 00000KT 10SM FEW001 11/11 A3003 RMK A01
 
KSFO - San Francisco, California, USA
Distance from station: SW 174mi, 280km
Updated: Sun, 26-Jun-2022 6:56am PDT
Mostly cloudy
Mostly cloudy
 Wind from NNW
Wind: NNW 6 mph , 9 km/h
Temperature: 55°F , 13°C
Dew Point: 54°F , 12°C
Humidity: 94%
Barometer: 30.01 inHg , 1016.3 hPa
Clouds: Mostly cloudy
Visibility: 10 miles , 16 km
Cloud details: Few Clouds 500 ft
Mostly cloudy 700 ft
Mostly cloudy 900 ft
2022/06/26 13:56 KSFO 261356Z 33005KT 10SM FEW005 BKN007 BKN009 13/12 A3001 RMK AO2 SLP163 T01330117
KAAT - Alturas, California, USA
Distance from station: NNW 175mi, 281km
Updated: Sun, 26-Jun-2022 6:55am PDT
Clear
Clear
 Wind from calm
Wind: Calm
Temperature: 57°F , 14°C
Dew Point: 43°F , 6°C
Humidity: 59%
Barometer: 30.21 inHg , 1023 hPa
Clouds: Clear
Visibility: 10 miles , 16 km
2022/06/26 13:55 KAAT 261355Z AUTO 00000KT 10SM CLR 14/06 A3021 RMK AO2 SLP181 T01440056 $
 
KBAM - Battle Mtn (vor), Nevada, USA
Distance from station: NE 182mi, 294km
Updated: Sun, 26-Jun-2022 7:15am PDT
Clear
Clear
 Wind from N
Wind: N 6 mph , 9 km/h
Barometer: 30.25 inHg , 1024.4 hPa
Clouds: Clear
Visibility: 10 miles , 16 km
2022/06/26 14:15 KBAM 261415Z AUTO 36005KT 10SM CLR A3025 RMK AO1
KHAF - Half Moon Bay, California, USA
Distance from station: SW 184mi, 296km
Updated: Sun, 26-Jun-2022 7:15am PDT
Mist, Overcast
Mist, Overcast
 Wind from calm
Wind: Calm
Temperature: 54°F , 12°C
Dew Point: 54°F , 12°C
Humidity: 100%
Barometer: 30.03 inHg , 1016.9 hPa
Summary: Mist
Clouds: Overcast
Visibility: 1 mile , 2 km
Cloud details: Overcast 300 ft
2022/06/26 14:15 KHAF 261415Z AUTO 00000KT 1SM BR OVC003 12/12 A3003 RMK AO2
 
KWVI - Watsonville, California, USA
Distance from station: SW 184mi, 296km
Updated: Sun, 26-Jun-2022 7:11am PDT
Mist, Overcast
Mist, Overcast
 Wind from S
Wind: S 3 mph , 6 km/h
Temperature: 52°F , 11°C
Dew Point: 52°F , 11°C
Humidity: 100%
Barometer: 30.03 inHg , 1016.9 hPa
Summary: Mist
Clouds: Overcast
Visibility: 2 miles , 3 km
Cloud details: Overcast 200 ft
2022/06/26 14:11 KWVI 261411Z AUTO 19003KT 2SM BR OVC002 11/11 A3003 RMK AO2 VIS 1 1/2V2 1/2 T01110111
KUKI - Ukiah, California, USA
Distance from station: W 187mi, 300km
Updated: Sun, 26-Jun-2022 6:56am PDT
Clear
Clear
 Wind from calm
Wind: Calm
Temperature: 59°F , 15°C
Dew Point: 48°F , 9°C
Humidity: 68%
Barometer: 29.99 inHg , 1015.6 hPa
Clouds: Clear
Visibility: 10 miles , 16 km
2022/06/26 13:56 KUKI 261356Z AUTO 00000KT 10SM CLR 15/09 A2999 RMK AO2 SLP148 T01500089 $
 
KHJO - Hanford, California, USA
Distance from station: S 188mi, 303km
Updated: Sun, 26-Jun-2022 6:53am PDT
Clear
Clear
 Wind from W
Wind: W 3 mph , 6 km/h
Temperature: 70°F , 21°C
Dew Point: 52°F , 11°C
Humidity: 53%
Barometer: 29.96 inHg , 1014.6 hPa
Clouds: Clear
Visibility: 10 miles , 16 km
2022/06/26 13:53 KHJO 261353Z AUTO 26003KT 10SM CLR 21/11 A2996 RMK AO2 SLP144 T02110111
KNLC - Lemoore Nas/Reev, California, USA
Distance from station: S 188mi, 303km
Updated: Sun, 26-Jun-2022 6:56am PDT
Clear
Clear
 Wind from N
Wind: N 3 mph , 6 km/h
Temperature: 72°F , 22°C
Dew Point: 39°F , 4°C
Humidity: 31%
Barometer: 29.95 inHg , 1014.2 hPa
Clouds: Clear
Visibility: 10 miles , 16 km
2022/06/26 13:56 KNLC 261356Z AUTO 35003KT 10SM CLR 22/04 A2995 RMK AO2 SLP141 T02220044
 
KVIS - Visalia Muni, California, USA
Distance from station: S 189mi, 304km
Updated: Sun, 26-Jun-2022 6:56am PDT
Clear
Clear
 Wind from SE
Wind: SE 3 mph , 6 km/h
Temperature: 66°F , 19°C
Dew Point: 57°F , 14°C
Humidity: 73%
Barometer: 29.96 inHg , 1014.6 hPa
Clouds: Clear
Visibility: 10 miles , 16 km
2022/06/26 13:56 KVIS 261356Z AUTO 13003KT 10SM CLR 19/14 A2996 RMK AO2 SLP148 T01940139
KSNS - Salinas, California, USA
Distance from station: SSW 193mi, 311km
Updated: Sun, 26-Jun-2022 7:06am PDT
Mist, Overcast
Mist, Overcast
 Wind from varies
Wind: varies 3 mph , 6 km/h
Temperature: 54°F , 12°C
Dew Point: 52°F , 11°C
Humidity: 94%
Barometer: 30.02 inHg , 1016.6 hPa
Summary: Mist
Clouds: Overcast
Visibility: 6 miles , 10 km
Cloud details: Overcast 300 ft
2022/06/26 14:06 KSNS 261406Z VRB03KT 6SM BR OVC003 12/11 A3002 RMK AO2 T01220106
 
K05U - Eureka, Nevada, USA
Distance from station: ENE 203mi, 326km
Updated: Sun, 26-Jun-2022 6:55am PDT
Clear
Clear
 Wind from calm
Wind: Calm
Temperature: 59°F , 15°C
Dew Point: 37°F , 3°C
Humidity: 45%
Barometer: 30.35 inHg , 1027.8 hPa
Clouds: Clear
Visibility: 10 miles , 16 km
2022/06/26 13:55 K05U 261355Z AUTO 00000KT 10SM CLR 15/03 A3035 RMK A01
KP68 - Eureka, Nevada, USA
Distance from station: ENE 203mi, 326km
Updated: Sun, 26-Jun-2022 6:53am PDT

 Wind from calm
Wind: Calm
Temperature: 57°F , 14°C
Dew Point: 37°F , 3°C
Humidity: 48%
Barometer: 30.32 inHg , 1026.8 hPa
2022/06/26 13:53 KP68 261353Z AUTO 00000KT 14/03 A3032 RMK AO1 SLP203 T01390033
 
KMRY - Monterey, California, USA
Distance from station: SW 206mi, 331km
Updated: Sun, 26-Jun-2022 6:54am PDT
Mist, Overcast
Mist, Overcast
 Wind from calm
Wind: Calm
Temperature: 54°F , 12°C
Dew Point: 52°F , 11°C
Humidity: 94%
Barometer: 30.03 inHg , 1016.9 hPa
Summary: Mist
Clouds: Overcast
Visibility: 2 miles , 3 km
Cloud details: Overcast 100 ft
2022/06/26 13:54 KMRY 261354Z 00000KT 2SM BR OVC001 12/11 A3003 RMK AO2 SLP181 T01220106
KO54 - Weaverville, California, USA
Distance from station: NW 207mi, 332km
Updated: Wed, 12-Aug-2020 11:15am PDT
NOT Current
Clear
Clear
 Wind from S
Wind: S 3 mph , 6 km/h
Temperature: 77°F , 25°C
Dew Point: 41°F , 5°C
Humidity: 28%
Barometer: 30.01 inHg , 1016.3 hPa
Clouds: Clear
Visibility: 10 miles , 16 km
2020/08/12 18:15 KO54 121815Z AUTO 17003KT 10SM CLR 25/05 A3001 RMK AO1
 
KO86 - Trinity Center, California, USA
Distance from station: NW 207mi, 333km
Updated: Tue, 05-Apr-2022 12:30pm PDT
NOT Current
Clear
Clear
 Wind from calm
Wind: Calm
Temperature: 61°F , 16°C
Dew Point: 39°F , 4°C
Humidity: 45%
Barometer: 32.59 inHg , 1103.6 hPa
Clouds: Clear
Visibility: 10 miles , 16 km
2022/04/05 19:30 KO86 051930Z AUTO 00000KT 10SM CLR 16/04 A3259 RMK A01
KMHS - Mount Shasta, California, USA
Distance from station: NW 209mi, 336km
Updated: Sun, 26-Jun-2022 6:56am PDT
Clear
Clear
 Wind from calm
Wind: Calm
Temperature: 55°F , 13°C
Dew Point: 41°F , 5°C
Humidity: 59%
Barometer: 30.13 inHg , 1020.3 hPa
Clouds: Clear
Visibility: 10 miles , 16 km
2022/06/26 13:56 KMHS 261356Z AUTO 00000KT 10SM CLR 13/05 A3013 RMK AO2 SLP188 T01330050
 
KPTV - Porterville, California, USA
Distance from station: S 212mi, 341km
Updated: Sun, 26-Jun-2022 6:56am PDT
Clear
Clear
 
Temperature: 72°F , 22°C
Dew Point: 52°F , 11°C
Humidity: 50%
Barometer: 29.97 inHg , 1014.9 hPa
Clouds: Clear
Visibility: 10 miles , 16 km
2022/06/26 13:56 KPTV 261356Z AUTO 10SM CLR 22/11 A2997 RMK AO2 SLP145 T02170111 $
KLKV - Lakeview, Oregon, USA
Distance from station: N 219mi, 353km
Updated: Sun, 26-Jun-2022 6:53am PDT
Clear
Clear
 Wind from NNW
Wind: NNW 5 mph , 7 km/h
Temperature: 57°F , 14°C
Dew Point: 39°F , 4°C
Humidity: 51%
Barometer: 30.24 inHg , 1024 hPa
Clouds: Clear
Visibility: 10 miles , 16 km
2022/06/26 13:53 KLKV 261353Z AUTO 33004KT 10SM CLR 14/04 A3024 RMK AO2 SLP196 T01390044
 
KSIY - Montague/Siskiyo, California, USA
Distance from station: NW 237mi, 382km
Updated: Sun, 26-Jun-2022 6:53am PDT
Clear
Clear
 Wind from ENE
Wind: ENE 6 mph , 9 km/h
Temperature: 68°F , 20°C
Dew Point: 39°F , 4°C
Humidity: 35%
Barometer: 30.10 inHg , 1019.3 hPa
Clouds: Clear
Visibility: 10 miles , 16 km
2022/06/26 13:53 KSIY 261353Z AUTO 07005KT 10SM CLR 20/04 A3010 RMK AO2 SLP172 T02000044 $
KPRB - Paso Robles, California, USA
Distance from station: SSW 238mi, 383km
Updated: Sun, 26-Jun-2022 6:53am PDT
Clear
Clear
 Wind from WSW
Wind: WSW 3 mph , 6 km/h
Temperature: 59°F , 15°C
Dew Point: 39°F , 4°C
Humidity: 48%
Barometer: 30.01 inHg , 1016.3 hPa
Clouds: Clear
Visibility: 10 miles , 16 km
2022/06/26 13:53 KPRB 261353Z AUTO 25003KT 10SM CLR 15/04 A3001 RMK AO2 SLP153 T01500044 $
 
KLMT - Klamath Falls, Oregon, USA
Distance from station: NNW 239mi, 385km
Updated: Sun, 26-Jun-2022 6:53am PDT
Clear
Clear
 Wind from N
Wind: N 6 mph , 9 km/h
Temperature: 63°F , 17°C
Dew Point: 45°F , 7°C
Humidity: 52%
Barometer: 30.19 inHg , 1022.4 hPa
Clouds: Clear
Visibility: 10 miles , 16 km
2022/06/26 13:53 KLMT 261353Z 01005KT 10SM CLR 17/07 A3019 RMK AO2 SLP173 T01720067
KEKO - Elko, Nevada, USA
Distance from station: ENE 242mi, 390km
Updated: Sun, 26-Jun-2022 6:56am PDT
Clear
Clear
 Wind from NNW
Wind: NNW 3 mph , 6 km/h
Temperature: 63°F , 17°C
Dew Point: 25°F , -4°C
Humidity: 24%
Barometer: 30.30 inHg , 1026.1 hPa
Clouds: Clear
Visibility: 10 miles , 16 km
2022/06/26 13:56 KEKO 261356Z AUTO 34003KT 10SM CLR 17/M04 A3030 RMK AO2 SLP200 T01671044
 
KBFL - Bakersfield, California, USA
Distance from station: S 252mi, 405km
Updated: Sun, 26-Jun-2022 6:54am PDT
Clear
Clear
 Wind from SSE
Wind: SSE 3 mph , 6 km/h
Temperature: 79°F , 26°C
Dew Point: 48°F , 9°C
Humidity: 34%
Barometer: 29.96 inHg , 1014.6 hPa
Clouds: Clear
Visibility: 9 miles , 14 km
2022/06/26 13:54 KBFL 261354Z 15003KT 9SM CLR 26/09 A2996 RMK AO2 SLP138 T02560094 $
KFOT - Fortuna, California, USA
Distance from station: WNW 256mi, 413km
Updated: Sun, 26-Jun-2022 6:55am PDT
Overcast
Overcast
 Wind from calm
Wind: Calm
Temperature: 50°F , 10°C
Dew Point: 50°F , 10°C
Humidity: 100%
Barometer: 29.98 inHg , 1015.2 hPa
Clouds: Overcast
Visibility: less than 1/4 mile , 0.4 km
Cloud details: Overcast 200 ft
2022/06/26 13:55 KFOT 261355Z AUTO 00000KT M1/4SM OVC002 10/10 A2998 RMK AO1
 
KNID - China Lake (naf), California, USA
Distance from station: SSE 259mi, 417km
Updated: Sun, 26-Jun-2022 6:56am PDT
Clear
Clear
 Wind from N
Wind: N 5 mph , 7 km/h
Temperature: 79°F , 26°C
Dew Point: 39°F , 4°C
Humidity: 24%
Barometer: 30.01 inHg , 1016.3 hPa
Clouds: Clear
Visibility: 10 miles , 16 km
2022/06/26 13:56 KNID 261356Z AUTO 35004KT 10SM CLR 26/04 A3001 RMK AO2 SLP134 T02610044 $
KDRA - Desert R/Mercury, Nevada, USA
Distance from station: SE 262mi, 421km
Updated: Sun, 26-Jun-2022 6:53am PDT
Clear
Clear
 Wind from calm
Wind: Calm
Temperature: 77°F , 25°C
Dew Point: 25°F , -4°C
Humidity: 14%
Barometer: 30.09 inHg , 1019 hPa
Clouds: Clear
Visibility: 10 miles , 16 km
2022/06/26 13:53 KDRA 261353Z AUTO 00000KT 10SM CLR 25/M04 A3009 RMK AO2 SLP133 T02501039
 
KELY - Ely, Nevada, USA
Distance from station: E 262mi, 421km
Updated: Sun, 26-Jun-2022 6:53am PDT
Clear
Clear
 Wind from calm
Wind: Calm
Temperature: 63°F , 17°C
Dew Point: 30°F , -1°C
Humidity: 30%
Barometer: 30.36 inHg , 1028.1 hPa
Clouds: Clear
Visibility: 10 miles , 16 km
2022/06/26 13:53 KELY 261353Z AUTO 00000KT 10SM CLR 17/M01 A3036 RMK AO2 SLP179 T01671006
KREO - Rome, Oregon, USA
Distance from station: NNE 263mi, 424km
Updated: Sun, 26-Jun-2022 6:52am PDT

 Wind from calm
Wind: Calm
Temperature: 61°F , 16°C
Dew Point: 36°F , 2°C
Humidity: 39%
Barometer: 30.25 inHg , 1024.4 hPa
2022/06/26 13:52 KREO 261352Z AUTO 00000KT 16/02 A3025 RMK AO1 SLP205 T01610017
 
KACV - Arcata/Eureka, California, USA
Distance from station: WNW 268mi, 431km
Updated: Sun, 26-Jun-2022 6:53am PDT
Fog, Overcast
Fog, Overcast
 Wind from calm
Wind: Calm
Temperature: 52°F , 11°C
Dew Point: 52°F , 11°C
Humidity: 100%
Barometer: 29.97 inHg , 1014.9 hPa
Summary: Fog
Clouds: Overcast
Visibility: 1/4 mile , 0.4 km
Cloud details: Overcast 200 ft
2022/06/26 13:53 KACV 261353Z AUTO 00000KT 1/4SM R32/1000V1200FT FG VV002 11/11 A2997 RMK AO2 SLP156 T01110111
KSBP - San Luis Obispo, California, USA
Distance from station: S 268mi, 431km
Updated: Sun, 26-Jun-2022 6:56am PDT
Mist, Overcast
Mist, Overcast
 Wind from WSW
Wind: WSW 5 mph , 7 km/h
Temperature: 54°F , 12°C
Dew Point: 52°F , 11°C
Humidity: 94%
Barometer: 30.00 inHg , 1015.9 hPa
Summary: Mist
Clouds: Overcast
Visibility: 2 miles , 3 km
Cloud details: Overcast 200 ft
2022/06/26 13:56 KSBP 261356Z 24004KT 2SM BR OVC002 12/11 A3000 RMK AO2 SLP158 T01170111 $
 
KINS - Indian Springs, Nevada, USA
Distance from station: SE 279mi, 449km
Updated: Sun, 26-Jun-2022 6:58am PDT
Clear
Clear
 Wind from calm
Wind: Calm
Temperature: 75°F , 24°C
Dew Point: 25°F , -4°C
Humidity: 15%
Barometer: 30.08 inHg , 1018.6 hPa
Clouds: Clear
Visibility: 10 miles , 16 km
2022/06/26 13:58 KINS 261358Z AUTO 00000KT 10SM CLR 24/M04 A3008 RMK AO2 SLP133 T02381044 $
KTSP - Tehachapi, California, USA
Distance from station: SSE 279mi, 449km
Updated: Sun, 26-Jun-2022 7:15am PDT
Clear
Clear
 Wind from calm
Wind: Calm
Temperature: 68°F , 20°C
Dew Point: 43°F , 6°C
Humidity: 40%
Barometer: 30.19 inHg , 1022.4 hPa
Clouds: Clear
Visibility: 9 miles , 14 km
2022/06/26 14:15 KTSP 261415Z AUTO 00000KT 9SM CLR 20/06 A3019 RMK AO2
 
KMFR - Medford, Oregon, USA
Distance from station: NW 284mi, 457km
Updated: Sun, 26-Jun-2022 6:53am PDT
Clear
Clear
 Wind from calm
Wind: Calm
Temperature: 66°F , 19°C
Dew Point: 54°F , 12°C
Humidity: 64%
Barometer: 30.01 inHg , 1016.3 hPa
Clouds: Clear
Visibility: 10 miles , 16 km
2022/06/26 13:53 KMFR 261353Z 00000KT 10SM CLR 19/12 A3001 RMK AO2 SLP146 T01940117
KMHV - Mojave, California, USA
Distance from station: SSE 288mi, 463km
Updated: Sun, 26-Jun-2022 7:00am PDT
Clear
Clear
 Wind from varies
Wind: varies 5 mph , 7 km/h
Temperature: 82°F , 28°C
Dew Point: 36°F , 2°C
Humidity: 19%
Barometer: 30.06 inHg , 1017.9 hPa
Clouds: Clear
Visibility: 10 miles , 16 km
2022/06/26 14:00 KMHV 261400Z AUTO VRB04KT 10SM CLR 28/02 A3006 RMK A01
 
KSMX - Santa Maria, California, USA
Distance from station: S 289mi, 465km
Updated: Sun, 26-Jun-2022 6:51am PDT
Fog, Overcast
Fog, Overcast
 Wind from calm
Wind: Calm
Temperature: 54°F , 12°C
Dew Point: 52°F , 11°C
Humidity: 94%
Barometer: 30.00 inHg , 1015.9 hPa
Summary: Fog
Clouds: Overcast
Visibility: 1/4 mile , 0.4 km
Cloud details: Overcast 200 ft
2022/06/26 13:51 KSMX 261351Z 00000KT 1/4SM R12/2800VP6000FT FG VV002 12/11 A3000 RMK AO2 SLP162 T01170111
K9L2 - Edwards N-Aux, California, USA
Distance from station: SSE 299mi, 482km
Updated: Sun, 26-Jun-2022 6:58am PDT
Clear
Clear
 Wind from N
Wind: N 3 mph , 6 km/h
Temperature: 68°F , 20°C
Dew Point: 45°F , 7°C
Humidity: 43%
Barometer: 30.03 inHg , 1016.9 hPa
Clouds: Clear
Visibility: 10 miles , 16 km
2022/06/26 13:58 K9L2 261358Z AUTO 35003KT 10SM CLR 20/07 A3003 RMK AO2 SLP143 T02020065 $
Honor Flight NV - Honoring all of our Veterans CoCoRaHS (Community Collaborative Rain, Hail and Snow Network) Station Number: NV-DG-2 Live Lightning Map - USA Reno Skywarn Spotter ID: DO21 AlertID Southwestern Weather Network Carson Valley Community Food Closet - providing for the needs of our community



(Click on the Flag Counter logo below for details in new browser tab)
Flag Counter